Time;durP1;ratioP1;P1;durP2;ratioP2;P2;SDS_P1;SDS_P2;PMS_P1;PMS_P2;Temp;Humidity;BMP_temperature;BMP_pressure;BME280_temperature;BME280_humidity;BME280_pressure;Samples;Min_cycle;Max_cycle;Signal;HPM_P1;HPM_P2
2022/12/18 00:00:31;;;;;;;138.30;65.13;;;-2.70;99.90;;;;;;5018493;28;20080;-70
2022/12/18 00:02:57;;;;;;;124.18;61.42;;;-2.70;99.90;;;;;;5018376;28;20140;-70
2022/12/18 00:05:22;;;;;;;132.85;60.15;;;-2.70;99.90;;;;;;5035172;28;20045;-70
2022/12/18 00:07:48;;;;;;;141.25;64.65;;;-2.70;99.90;;;;;;5034815;28;20049;-70
2022/12/18 00:10:23;;;;;;;141.48;62.33;;;-2.70;99.90;;;;;;5035223;28;20092;-70
2022/12/18 00:12:48;;;;;;;132.73;56.58;;;-2.70;99.90;;;;;;5035046;28;20053;-70
2022/12/18 00:15:14;;;;;;;134.18;59.50;;;-2.70;99.90;;;;;;5035236;28;20033;-70
2022/12/18 00:17:40;;;;;;;136.63;62.17;;;-2.80;99.90;;;;;;5035045;28;20445;-70
2022/12/18 00:20:06;;;;;;;133.13;60.20;;;-2.80;99.90;;;;;;5035578;28;20050;-70
2022/12/18 00:22:31;;;;;;;124.72;57.97;;;-4.10;99.90;;;;;;5034760;28;20063;-70
2022/12/18 00:24:57;;;;;;;143.43;64.10;;;-2.80;99.90;;;;;;5034785;28;20525;-71
2022/12/18 00:27:23;;;;;;;140.18;64.57;;;-2.90;99.90;;;;;;5018194;28;20461;-70
2022/12/18 00:29:49;;;;;;;143.73;61.85;;;-2.90;99.90;;;;;;5017832;28;20512;-70
2022/12/18 00:32:14;;;;;;;132.43;60.35;;;-2.90;99.90;;;;;;5035118;28;20056;-70
2022/12/18 00:34:40;;;;;;;147.23;66.35;;;-2.80;99.90;;;;;;5034935;28;20049;-71
2022/12/18 00:37:05;;;;;;;153.43;63.70;;;-2.90;99.90;;;;;;5034517;28;20034;-70
2022/12/18 00:39:31;;;;;;;144.25;65.65;;;-2.80;99.90;;;;;;5034993;28;20063;-70
2022/12/18 00:44:41;;;;;;;174.10;65.93;;;-2.90;99.90;;;;;;5035204;28;20419;-70
2022/12/18 00:47:06;;;;;;;167.18;69.90;;;-2.90;99.90;;;;;;5034616;28;20045;-70
2022/12/18 00:49:32;;;;;;;149.25;63.88;;;-3.00;99.90;;;;;;5035574;28;20077;-70
2022/12/18 00:51:57;;;;;;;159.88;67.85;;;-3.00;99.90;;;;;;5038530;28;20458;-70
2022/12/18 00:54:23;;;;;;;177.25;76.25;;;-3.00;99.90;;;;;;5038611;28;20053;-70
2022/12/18 00:56:49;;;;;;;159.18;66.20;;;-3.00;99.90;;;;;;5020567;28;20050;-70
2022/12/18 00:59:15;;;;;;;166.77;71.25;;;-3.10;99.90;;;;;;5038352;28;20158;-70
2022/12/18 01:01:40;;;;;;;159.25;66.20;;;-3.00;99.90;;;;;;5038672;28;20389;-70
2022/12/18 01:04:06;;;;;;;168.60;68.38;;;-3.00;99.90;;;;;;5038550;28;20041;-70
2022/12/18 01:06:32;;;;;;;142.23;62.38;;;-3.10;99.90;;;;;;5038191;28;20053;-70
2022/12/18 01:08:57;;;;;;;140.07;63.00;;;-3.10;99.90;;;;;;5038132;28;20049;-70
2022/12/18 01:11:23;;;;;;;152.05;63.63;;;-3.10;99.90;;;;;;5038548;28;20045;-70
2022/12/18 01:13:49;;;;;;;134.00;62.22;;;-2.30;99.90;;;;;;5020403;28;20120;-70
2022/12/18 01:16:17;;;;;;;140.90;62.80;;;-3.10;99.90;;;;;;5020978;28;20133;-70
2022/12/18 01:18:43;;;;;;;144.18;63.22;;;-3.20;99.90;;;;;;5038203;28;20122;-70
2022/12/18 01:21:11;;;;;;;137.57;60.55;;;-3.20;99.90;;;;;;5038339;28;20381;-70
2022/12/18 01:23:37;;;;;;;134.90;60.70;;;-3.20;99.90;;;;;;5037781;28;20124;-70
2022/12/18 01:26:08;;;;;;;141.55;63.88;;;-3.10;99.90;;;;;;5037979;28;20053;-70
2022/12/18 01:28:34;;;;;;;135.30;59.95;;;-3.30;99.90;;;;;;5038247;28;20049;-70
2022/12/18 01:31:29;;;;;;;163.25;69.15;;;-3.30;99.90;;;;;;5038133;28;20339;-70
2022/12/18 01:33:55;;;;;;;144.55;67.53;;;-3.30;99.90;;;;;;5020284;28;20124;-70
2022/12/18 01:36:27;;;;;;;159.63;67.00;;;-3.40;99.90;;;;;;5037422;28;20091;-71
2022/12/18 01:38:53;;;;;;;148.93;65.20;;;-3.40;99.90;;;;;;5037758;28;20478;-70
2022/12/18 01:41:24;;;;;;;134.45;58.83;;;-3.50;99.90;;;;;;5037731;28;20057;-70
2022/12/18 01:43:57;;;;;;;150.30;61.95;;;-3.50;99.90;;;;;;5037609;28;20049;-70
2022/12/18 01:46:24;;;;;;;165.57;70.10;;;-3.50;99.90;;;;;;5037858;28;20107;-70
2022/12/18 01:48:53;;;;;;;145.73;63.92;;;-3.60;99.90;;;;;;5038063;28;20052;-70
2022/12/18 01:51:19;;;;;;;177.80;77.78;;;-3.10;99.90;;;;;;5037173;28;20056;-70
2022/12/18 01:53:46;;;;;;;147.93;71.60;;;-3.70;99.90;;;;;;5037371;28;20050;-70
2022/12/18 01:56:17;;;;;;;148.23;68.70;;;-3.70;99.90;;;;;;5037338;28;20060;-70
2022/12/18 01:59:10;;;;;;;146.90;60.95;;;-3.70;99.90;;;;;;5036862;28;20478;-70
2022/12/18 02:01:37;;;;;;;161.85;80.07;;;-3.70;99.90;;;;;;5032336;28;20053;-70
2022/12/18 02:04:22;;;;;;;167.25;69.90;;;-3.70;99.90;;;;;;5037793;28;20064;-70
2022/12/18 02:06:55;;;;;;;160.10;76.55;;;-3.70;99.90;;;;;;5037105;28;20058;-70
2022/12/18 02:09:33;;;;;;;148.83;65.73;;;-3.70;99.90;;;;;;5037180;28;20053;-70
2022/12/18 02:12:02;;;;;;;169.40;76.57;;;-3.70;99.90;;;;;;5020185;28;20041;-70
2022/12/18 02:14:30;;;;;;;150.60;69.55;;;-3.70;99.90;;;;;;5037052;28;20377;-70
2022/12/18 02:17:08;;;;;;;147.15;65.68;;;-3.60;99.90;;;;;;5036729;28;20512;-70
2022/12/18 02:20:08;;;;;;;165.18;78.40;;;-3.70;99.90;;;;;;5037166;28;20053;-70
2022/12/18 02:22:58;;;;;;;169.02;75.25;;;-3.70;99.90;;;;;;5013362;28;20066;-70
2022/12/18 02:25:42;;;;;;;154.90;68.03;;;-3.80;99.90;;;;;;5016742;28;20141;-70
2022/12/18 02:28:13;;;;;;;156.77;68.72;;;-3.80;99.90;;;;;;5017221;28;20041;-70
2022/12/18 02:30:40;;;;;;;175.82;78.35;;;-3.70;99.90;;;;;;5016304;28;20054;-70
2022/12/18 02:33:08;;;;;;;175.10;75.50;;;-3.70;99.90;;;;;;5016485;28;20104;-70
2022/12/18 02:35:36;;;;;;;179.15;79.45;;;-3.70;99.90;;;;;;5004562;28;20350;-70
2022/12/18 02:38:03;;;;;;;177.00;77.07;;;-3.70;99.90;;;;;;5036264;28;20052;-70
2022/12/18 02:40:30;;;;;;;169.07;81.38;;;-3.70;99.90;;;;;;5036823;28;20037;-70
2022/12/18 02:43:12;;;;;;;184.52;89.63;;;-3.80;99.90;;;;;;5019513;28;20049;-70
2022/12/18 02:45:48;;;;;;;157.05;69.68;;;-3.80;99.90;;;;;;5036372;28;20041;-70
2022/12/18 02:48:14;;;;;;;151.20;66.40;;;-3.90;99.90;;;;;;5036494;28;20045;-70
2022/12/18 02:50:51;;;;;;;152.93;68.60;;;-4.00;99.90;;;;;;5036528;28;20354;-71
2022/12/18 02:53:49;;;;;;;154.50;68.75;;;-4.00;99.90;;;;;;5035922;28;20118;-71
2022/12/18 02:56:36;;;;;;;146.98;68.45;;;-4.10;99.90;;;;;;5018586;28;20049;-70
2022/12/18 02:59:15;;;;;;;156.65;71.97;;;-4.20;99.90;;;;;;5036388;28;20131;-70
2022/12/18 03:02:03;;;;;;;158.30;71.65;;;-4.30;99.90;;;;;;5018754;28;20071;-70
2022/12/18 03:04:39;;;;;;;156.68;72.10;;;-4.30;99.90;;;;;;5036078;28;20084;-70
2022/12/18 03:07:15;;;;;;;157.63;69.00;;;-4.40;99.90;;;;;;5036107;28;20081;-70
2022/12/18 03:09:46;;;;;;;157.90;70.93;;;-4.40;99.90;;;;;;5036093;28;20369;-70
2022/12/18 03:12:25;;;;;;;151.50;69.95;;;-3.70;99.90;;;;;;5035466;28;20057;-70
2022/12/18 03:15:17;;;;;;;158.65;70.75;;;-4.50;99.90;;;;;;5035828;28;20155;-70
2022/12/18 03:17:48;;;;;;;145.07;67.85;;;-4.60;99.90;;;;;;5028023;28;20046;-70
2022/12/18 03:20:18;;;;;;;153.52;69.85;;;-4.60;99.90;;;;;;5035832;28;20076;-70
2022/12/18 03:22:48;;;;;;;152.63;71.00;;;-4.60;99.90;;;;;;5018229;28;20037;-70
2022/12/18 03:25:15;;;;;;;151.95;69.18;;;-3.30;99.90;;;;;;5035858;28;20065;-70
2022/12/18 03:27:46;;;;;;;162.95;71.40;;;-4.70;99.90;;;;;;5035651;28;20041;-70
2022/12/18 03:30:14;;;;;;;151.65;67.15;;;-4.70;99.90;;;;;;5035821;28;20049;-70
2022/12/18 03:32:51;;;;;;;143.90;67.70;;;-4.80;99.90;;;;;;5035725;28;20049;-70
2022/12/18 03:35:22;;;;;;;148.88;67.18;;;-4.80;99.90;;;;;;4984737;28;20088;-69
2022/12/18 03:37:48;;;;;;;146.07;66.95;;;-4.80;99.90;;;;;;5035414;28;20052;-70
2022/12/18 03:40:14;;;;;;;155.05;66.88;;;-4.90;99.90;;;;;;5035458;28;20045;-70
2022/12/18 03:42:52;;;;;;;149.20;64.78;;;-4.90;99.90;;;;;;5035674;28;20037;-70
2022/12/18 03:45:59;;;;;;;140.77;63.65;;;-4.60;99.90;;;;;;5035327;28;20106;-70
2022/12/18 03:48:37;;;;;;;153.20;67.03;;;-4.90;99.90;;;;;;5035915;28;20049;-70
2022/12/18 03:51:27;;;;;;;150.30;65.07;;;-5.00;99.90;;;;;;5035227;28;20092;-70
2022/12/18 03:54:02;;;;;;;141.57;64.30;;;-4.90;99.90;;;;;;5034497;28;20053;-70
2022/12/18 03:56:38;;;;;;;145.85;64.47;;;-5.00;99.90;;;;;;5034879;28;20041;-70
2022/12/18 03:59:06;;;;;;;156.82;65.40;;;-4.80;99.90;;;;;;5035349;28;20062;-70
2022/12/18 04:01:35;;;;;;;144.85;64.53;;;-5.00;99.90;;;;;;5035321;28;20358;-70
2022/12/18 04:04:02;;;;;;;150.40;65.45;;;-5.00;99.90;;;;;;5017396;28;20041;-69
2022/12/18 04:06:29;;;;;;;162.07;68.70;;;-5.00;99.90;;;;;;5035328;28;20041;-70
2022/12/18 04:08:56;;;;;;;140.27;64.00;;;-4.20;99.90;;;;;;5035014;28;20098;-70
2022/12/18 04:11:21;;;;;;;147.07;64.78;;;-5.00;99.90;;;;;;5035369;28;20046;-70
2022/12/18 04:13:47;;;;;;;147.00;64.38;;;-5.10;99.90;;;;;;5034982;28;20041;-69
2022/12/18 04:16:13;;;;;;;143.63;61.45;;;-5.10;99.90;;;;;;5035124;28;20053;-70
2022/12/18 04:18:38;;;;;;;128.45;59.83;;;-5.10;99.90;;;;;;5034807;28;20046;-70
2022/12/18 04:21:04;;;;;;;139.38;64.32;;;-5.20;99.90;;;;;;5035236;28;20050;-69
2022/12/18 04:23:29;;;;;;;134.75;61.67;;;-5.20;99.90;;;;;;5017613;28;20081;-70
2022/12/18 04:25:55;;;;;;;145.65;62.80;;;-5.20;99.90;;;;;;5038088;28;20042;-69
2022/12/18 04:28:21;;;;;;;131.88;62.22;;;-5.20;99.90;;;;;;5039354;28;20111;-70
2022/12/18 04:30:48;;;;;;;142.05;65.97;;;-5.20;99.90;;;;;;5039118;28;20068;-69
2022/12/18 04:33:17;;;;;;;132.60;60.25;;;-5.20;99.90;;;;;;5038472;28;20094;-70
2022/12/18 04:35:42;;;;;;;134.93;60.05;;;-5.20;99.90;;;;;;5039696;28;20115;-70
2022/12/18 04:38:09;;;;;;;130.95;61.63;;;-5.20;99.90;;;;;;5038662;28;20041;-69
2022/12/18 04:40:36;;;;;;;134.73;61.05;;;-5.30;99.90;;;;;;5038855;28;20367;-70
2022/12/18 04:43:02;;;;;;;133.93;63.70;;;-5.30;99.90;;;;;;5038751;28;20038;-70
2022/12/18 04:45:28;;;;;;;135.05;61.63;;;-5.30;99.90;;;;;;5038977;28;20088;-70
2022/12/18 04:47:53;;;;;;;123.53;58.50;;;-5.40;99.90;;;;;;5038386;28;20096;-70
2022/12/18 04:50:19;;;;;;;118.93;58.25;;;-5.40;99.90;;;;;;5038405;28;20060;-70
2022/12/18 04:52:45;;;;;;;123.88;58.50;;;-5.40;99.90;;;;;;5038793;28;20160;-70
2022/12/18 04:55:10;;;;;;;125.80;57.95;;;-5.40;99.90;;;;;;5021451;28;20053;-70
2022/12/18 04:57:36;;;;;;;130.27;58.72;;;-5.40;99.90;;;;;;5038421;28;20154;-69
2022/12/18 05:00:02;;;;;;;118.40;56.03;;;-5.40;99.90;;;;;;5038457;28;20045;-70
2022/12/18 05:02:28;;;;;;;117.53;55.95;;;-5.50;99.90;;;;;;5019634;28;20115;-69
2022/12/18 05:04:53;;;;;;;117.35;57.55;;;-5.50;99.90;;;;;;5039085;28;20041;-70
2022/12/18 05:07:19;;;;;;;128.15;58.05;;;-5.60;99.90;;;;;;5038289;28;20041;-70
2022/12/18 05:09:45;;;;;;;112.85;55.00;;;-5.60;99.90;;;;;;5021199;28;20354;-70
2022/12/18 05:12:10;;;;;;;109.82;53.10;;;-5.60;99.90;;;;;;5038233;28;20053;-70
2022/12/18 05:14:36;;;;;;;106.05;52.88;;;-5.60;99.90;;;;;;5038129;28;20052;-70
2022/12/18 05:17:02;;;;;;;109.10;53.42;;;-5.70;99.90;;;;;;5038165;28;20049;-70
2022/12/18 05:19:27;;;;;;;101.97;50.88;;;-5.70;99.90;;;;;;5038878;28;20049;-70
2022/12/18 05:21:53;;;;;;;102.55;52.00;;;-5.70;99.90;;;;;;5038047;28;20050;-70
2022/12/18 05:24:18;;;;;;;114.78;54.15;;;-5.70;99.90;;;;;;5038317;28;20049;-70
2022/12/18 05:26:44;;;;;;;101.90;54.13;;;-5.70;99.90;;;;;;5038127;28;20037;-69
2022/12/18 05:29:12;;;;;;;105.07;51.55;;;-5.70;99.90;;;;;;5038145;28;20045;-70
2022/12/18 05:31:38;;;;;;;100.90;51.97;;;-5.80;99.90;;;;;;5037899;28;20033;-69
2022/12/18 05:34:04;;;;;;;98.05;50.28;;;-5.80;99.90;;;;;;5037792;28;20331;-69
2022/12/18 05:36:30;;;;;;;112.85;53.20;;;-5.80;99.90;;;;;;5037545;28;20138;-70
2022/12/18 05:38:56;;;;;;;100.70;51.83;;;-5.80;99.90;;;;;;5037597;28;20101;-69
2022/12/18 05:41:21;;;;;;;96.13;50.28;;;-5.80;99.90;;;;;;5020419;28;20567;-70
2022/12/18 05:43:47;;;;;;;102.78;51.97;;;-5.80;99.90;;;;;;5037824;28;20146;-69
2022/12/18 05:46:15;;;;;;;98.78;49.80;;;-5.80;99.90;;;;;;5037449;28;20059;-69
2022/12/18 05:48:42;;;;;;;94.35;47.65;;;-5.90;99.90;;;;;;5037814;28;20107;-70
2022/12/18 05:51:10;;;;;;;91.53;46.85;;;-5.80;99.90;;;;;;5037625;28;20418;-70
2022/12/18 05:53:37;;;;;;;88.60;46.95;;;-5.90;99.90;;;;;;5037574;28;20119;-70
2022/12/18 05:56:04;;;;;;;84.68;47.00;;;-5.90;99.90;;;;;;5037527;28;20058;-69
2022/12/18 05:58:31;;;;;;;85.07;47.05;;;-5.90;99.90;;;;;;5037483;28;20050;-69
2022/12/18 06:00:57;;;;;;;88.72;47.15;;;-6.00;99.90;;;;;;5037221;28;20053;-70
2022/12/18 06:03:23;;;;;;;82.93;44.60;;;-5.90;99.90;;;;;;5037322;28;20045;-70
2022/12/18 06:05:49;;;;;;;81.10;45.72;;;-6.00;99.90;;;;;;5037186;28;20095;-69
2022/12/18 06:08:15;;;;;;;81.95;44.75;;;-5.90;99.90;;;;;;5037191;28;20374;-70
2022/12/18 06:10:41;;;;;;;78.80;46.28;;;-5.90;99.90;;;;;;5037257;28;20041;-70
2022/12/18 06:13:07;;;;;;;83.07;45.00;;;-5.20;99.90;;;;;;5003208;28;20042;-69
2022/12/18 06:15:35;;;;;;;81.05;46.30;;;-5.90;99.90;;;;;;5037045;28;20076;-70
2022/12/18 06:18:01;;;;;;;83.75;44.05;;;-5.90;99.90;;;;;;5036912;28;20129;-69
2022/12/18 06:20:31;;;;;;;77.63;45.58;;;-5.40;99.90;;;;;;5037972;28;20081;-69
2022/12/18 06:22:56;;;;;;;78.30;44.10;;;-5.80;99.90;;;;;;5036886;28;20476;-69
2022/12/18 06:25:22;;;;;;;69.60;42.55;;;-5.90;99.90;;;;;;5037063;28;20038;-69
2022/12/18 06:27:48;;;;;;;75.35;43.40;;;-5.90;99.90;;;;;;5036807;28;20044;-69
2022/12/18 06:30:14;;;;;;;73.25;43.33;;;-5.80;99.90;;;;;;5036938;28;20037;-69
2022/12/18 06:32:40;;;;;;;73.05;42.30;;;-5.90;99.90;;;;;;5037022;28;20049;-69
2022/12/18 06:35:06;;;;;;;78.60;43.88;;;-5.90;99.90;;;;;;5036571;28;20056;-70
2022/12/18 06:37:31;;;;;;;76.70;43.10;;;-5.90;99.90;;;;;;5036135;28;20401;-70
2022/12/18 06:39:57;;;;;;;69.10;41.78;;;-5.90;99.90;;;;;;5019330;28;20045;-70
2022/12/18 06:42:23;;;;;;;73.35;43.40;;;-5.90;99.90;;;;;;5019414;28;20132;-69
2022/12/18 06:44:49;;;;;;;77.68;43.78;;;-6.00;99.90;;;;;;5036483;28;20145;-70
2022/12/18 06:47:15;;;;;;;71.72;41.95;;;-4.90;99.90;;;;;;5035631;28;20124;-70
2022/12/18 06:49:40;;;;;;;66.30;40.67;;;-6.00;99.90;;;;;;5036452;28;20048;-70
2022/12/18 06:52:06;;;;;;;69.07;42.50;;;-6.00;99.90;;;;;;5036236;28;20037;-70
2022/12/18 06:54:31;;;;;;;75.25;44.40;;;-6.10;99.90;;;;;;5036552;28;20048;-69
2022/12/18 06:56:57;;;;;;;70.13;41.38;;;-6.10;99.90;;;;;;5035832;28;20057;-68
2022/12/18 06:59:22;;;;;;;68.55;42.00;;;-6.10;99.90;;;;;;5001592;28;20064;-70
2022/12/18 07:01:48;;;;;;;71.18;42.47;;;-6.10;99.90;;;;;;5035995;28;20468;-70
2022/12/18 07:04:13;;;;;;;73.75;39.55;;;-6.10;99.90;;;;;;5036110;28;20374;-70
2022/12/18 07:06:39;;;;;;;74.07;42.72;;;-6.10;99.90;;;;;;5036413;28;20046;-70
2022/12/18 07:09:05;;;;;;;66.97;41.15;;;-5.60;99.90;;;;;;5036160;28;20191;-70
2022/12/18 07:11:33;;;;;;;65.88;39.45;;;-6.20;99.90;;;;;;5036333;28;20049;-70
2022/12/18 07:14:01;;;;;;;70.15;40.08;;;-6.20;99.90;;;;;;5035473;28;20115;-70
2022/12/18 07:16:28;;;;;;;64.70;39.78;;;-6.20;99.90;;;;;;5035491;28;20072;-70
2022/12/18 07:18:56;;;;;;;66.35;39.28;;;-6.30;99.90;;;;;;5035786;28;20045;-70
2022/12/18 07:21:23;;;;;;;61.97;40.03;;;-6.20;99.90;;;;;;5035683;28;20042;-71
2022/12/18 07:23:49;;;;;;;68.95;41.90;;;-6.30;99.90;;;;;;5002920;28;20095;-70
2022/12/18 07:26:18;;;;;;;65.53;40.10;;;-6.30;99.90;;;;;;5018352;28;20402;-69
2022/12/18 07:28:43;;;;;;;66.93;40.83;;;-5.80;99.90;;;;;;5034952;28;20045;-70
2022/12/18 07:31:15;;;;;;;57.55;37.35;;;-6.20;99.90;;;;;;5035141;28;20351;-70
2022/12/18 07:33:41;;;;;;;65.72;40.40;;;-5.40;99.90;;;;;;5035234;28;20041;-70
2022/12/18 07:36:09;;;;;;;69.03;39.28;;;-5.80;99.90;;;;;;5035729;28;20128;-70
2022/12/18 07:38:35;;;;;;;61.55;39.22;;;-6.20;99.90;;;;;;4984327;28;20140;-70
2022/12/18 07:41:06;;;;;;;68.50;39.85;;;-6.20;99.90;;;;;;5017784;28;20037;-70
2022/12/18 07:43:31;;;;;;;64.95;38.65;;;-6.20;99.90;;;;;;5035630;28;20085;-71
2022/12/18 07:45:57;;;;;;;63.35;37.92;;;-6.20;99.90;;;;;;5035507;28;20084;-71
2022/12/18 07:48:23;;;;;;;66.95;40.15;;;-6.20;99.90;;;;;;5035069;28;20055;-71
2022/12/18 07:50:48;;;;;;;69.47;40.13;;;-6.20;99.90;;;;;;5035207;28;20103;-71
2022/12/18 07:53:14;;;;;;;66.22;40.47;;;-6.20;99.90;;;;;;5035350;28;20042;-71
2022/12/18 07:55:41;;;;;;;68.57;40.20;;;-6.20;99.90;;;;;;5034857;28;20038;-70
2022/12/18 07:58:07;;;;;;;66.65;41.05;;;-5.40;99.90;;;;;;5034966;28;20072;-70
2022/12/18 08:00:33;;;;;;;69.05;40.58;;;-6.30;99.90;;;;;;5034426;28;20362;-70
2022/12/18 08:02:59;;;;;;;62.33;39.20;;;-6.30;99.90;;;;;;5035082;28;20045;-70
2022/12/18 08:05:25;;;;;;;65.22;39.90;;;-6.30;99.90;;;;;;5034953;28;20461;-71
2022/12/18 08:07:50;;;;;;;70.85;41.35;;;-6.30;99.90;;;;;;5035338;28;20081;-70
2022/12/18 08:10:16;;;;;;;66.75;39.55;;;-6.30;99.90;;;;;;5001225;28;20060;-71
2022/12/18 08:12:42;;;;;;;73.32;41.88;;;-6.20;99.90;;;;;;5035168;28;20373;-70
2022/12/18 08:15:08;;;;;;;69.53;39.55;;;-6.20;99.90;;;;;;5034949;28;20137;-71
2022/12/18 08:17:33;;;;;;;62.55;40.38;;;-6.20;99.90;;;;;;5034806;28;20053;-71
2022/12/18 08:19:59;;;;;;;62.85;40.42;;;-6.20;99.90;;;;;;5034874;28;20053;-71
2022/12/18 08:22:25;;;;;;;68.45;40.30;;;-5.00;99.90;;;;;;5034588;28;20088;-71
2022/12/18 08:24:50;;;;;;;64.90;38.75;;;-6.10;99.90;;;;;;5035124;28;20088;-71
2022/12/18 08:27:16;;;;;;;60.97;39.60;;;-6.00;99.90;;;;;;5017412;28;20057;-71
2022/12/18 08:29:42;;;;;;;64.00;39.40;;;-5.30;99.90;;;;;;5034552;28;20054;-71
2022/12/18 08:32:08;;;;;;;60.88;37.55;;;-5.50;99.90;;;;;;5034411;28;20045;-71
2022/12/18 08:34:34;;;;;;;58.60;38.85;;;-5.80;99.90;;;;;;5034782;28;20049;-71
2022/12/18 08:36:59;;;;;;;61.47;39.13;;;-5.80;99.90;;;;;;5017359;28;20053;-71
2022/12/18 08:39:25;;;;;;;58.58;37.95;;;-5.80;99.90;;;;;;5017334;28;20065;-69
2022/12/18 08:44:37;;;;;;;58.22;36.85;;;-4.60;99.90;;;;;;5034601;28;20462;-71
2022/12/18 08:47:04;;;;;;;59.90;39.00;;;-4.70;99.90;;;;;;5034716;28;20053;-72
2022/12/18 08:49:29;;;;;;;59.72;38.72;;;-5.60;99.90;;;;;;5034466;28;20049;-70
2022/12/18 08:51:57;;;;;;;57.35;38.78;;;-5.60;99.90;;;;;;5016102;28;20103;-70
2022/12/18 08:54:23;;;;;;;56.67;37.08;;;-4.90;99.90;;;;;;5034108;28;20041;-70
2022/12/18 08:56:49;;;;;;;55.65;38.10;;;-4.80;99.90;;;;;;5034278;28;20158;-70
2022/12/18 08:59:16;;;;;;;54.08;36.30;;;-5.50;99.90;;;;;;5034470;28;20045;-70
2022/12/18 09:01:41;;;;;;;56.42;36.58;;;-5.40;99.90;;;;;;5034099;28;20115;-70
2022/12/18 09:04:09;;;;;;;58.22;37.05;;;-5.40;99.90;;;;;;5034432;28;20057;-70
2022/12/18 09:06:34;;;;;;;58.97;36.60;;;-5.40;99.90;;;;;;5034140;28;20545;-70
2022/12/18 09:09:00;;;;;;;54.75;37.90;;;-5.30;99.90;;;;;;5033541;28;20120;-71
2022/12/18 09:11:28;;;;;;;53.55;35.97;;;-5.30;99.90;;;;;;5036287;28;20358;-70
2022/12/18 09:13:54;;;;;;;54.13;35.70;;;-5.30;99.90;;;;;;5038065;28;20069;-70
2022/12/18 09:16:21;;;;;;;50.90;35.22;;;-5.20;99.90;;;;;;5037692;28;20120;-70
2022/12/18 09:18:47;;;;;;;51.17;35.60;;;-5.20;99.90;;;;;;5037999;28;20081;-70
2022/12/18 09:21:20;;;;;;;53.80;36.83;;;-5.10;99.90;;;;;;5037668;28;20084;-70
2022/12/18 09:23:50;;;;;;;54.05;35.33;;;-5.10;99.90;;;;;;5038061;28;20135;-70
2022/12/18 09:26:16;;;;;;;49.50;34.78;;;-5.00;99.90;;;;;;5037991;28;20060;-70
2022/12/18 09:28:42;;;;;;;55.22;33.78;;;-5.00;99.90;;;;;;5038018;28;20454;-70
2022/12/18 09:31:10;;;;;;;50.15;34.70;;;-4.70;99.90;;;;;;5037804;28;20046;-70
2022/12/18 09:33:36;;;;;;;47.60;33.85;;;-4.90;99.90;;;;;;5037762;28;20037;-70
2022/12/18 09:36:04;;;;;;;46.65;32.05;;;-4.80;99.90;;;;;;5037442;28;20107;-70
2022/12/18 09:38:29;;;;;;;43.13;31.73;;;-4.70;99.90;;;;;;5037531;28;20045;-70
2022/12/18 09:41:02;;;;;;;48.63;31.95;;;-4.70;99.90;;;;;;5037505;28;20052;-70
2022/12/18 09:43:41;;;;;;;40.83;30.20;;;-4.60;99.90;;;;;;5020636;28;20116;-70
2022/12/18 09:46:11;;;;;;;44.95;30.10;;;-4.50;99.90;;;;;;5037549;28;20045;-70
2022/12/18 09:48:43;;;;;;;42.30;31.02;;;-4.40;99.90;;;;;;5020281;28;20136;-70
2022/12/18 09:51:16;;;;;;;39.63;28.67;;;-4.30;99.90;;;;;;5037618;28;20049;-70
2022/12/18 09:53:46;;;;;;;42.17;29.95;;;-4.20;99.90;;;;;;5002818;28;20114;-70
2022/12/18 09:56:19;;;;;;;38.20;27.13;;;-4.10;99.90;;;;;;5040021;28;20037;-69
2022/12/18 09:58:53;;;;;;;37.58;26.35;;;-4.00;99.90;;;;;;5037148;28;20115;-69
2022/12/18 10:01:22;;;;;;;33.58;24.55;;;-3.90;99.90;;;;;;5020179;28;20442;-69
2022/12/18 10:03:49;;;;;;;35.13;25.80;;;-4.00;99.90;;;;;;5037341;28;20136;-70
2022/12/18 10:06:31;;;;;;;34.00;25.27;;;-3.90;99.90;;;;;;5037212;28;20049;-69
2022/12/18 10:09:28;;;;;;;32.17;24.63;;;-3.90;99.90;;;;;;5037136;28;20042;-69
2022/12/18 10:12:31;;;;;;;31.15;22.60;;;-3.90;99.90;;;;;;5020383;28;20100;-70
2022/12/18 10:15:06;;;;;;;30.63;22.13;;;-3.80;99.90;;;;;;5019890;28;20045;-70
2022/12/18 10:18:12;;;;;;;30.33;23.02;;;-3.80;99.90;;;;;;5037105;28;20350;-70
2022/12/18 10:20:44;;;;;;;29.98;22.45;;;-3.80;99.90;;;;;;5036544;28;20045;-70
2022/12/18 10:23:48;;;;;;;30.53;22.07;;;-3.80;99.90;;;;;;5018942;28;20197;-70
2022/12/18 10:26:14;;;;;;;28.25;21.48;;;-3.80;99.90;;;;;;5037275;28;20060;-69
2022/12/18 10:28:41;;;;;;;28.45;20.67;;;-3.80;99.90;;;;;;5036780;28;20037;-70
2022/12/18 10:31:14;;;;;;;27.77;19.90;;;-3.80;99.90;;;;;;5036724;28;20037;-70
2022/12/18 10:33:41;;;;;;;26.30;20.13;;;-3.70;99.90;;;;;;5036916;28;20049;-69
2022/12/18 10:36:06;;;;;;;28.23;20.60;;;-3.70;99.90;;;;;;5036864;28;20464;-72
2022/12/18 10:38:32;;;;;;;27.65;20.40;;;-3.60;99.90;;;;;;5036719;28;20251;-70
2022/12/18 10:41:00;;;;;;;25.30;18.08;;;-2.60;99.90;;;;;;5036404;28;20049;-72
2022/12/18 10:43:29;;;;;;;25.73;19.20;;;-3.60;99.90;;;;;;5036969;28;20052;-71
2022/12/18 10:46:11;;;;;;;26.92;19.13;;;-3.50;99.90;;;;;;5019038;28;20080;-71
2022/12/18 10:48:56;;;;;;;23.65;17.77;;;-3.50;99.90;;;;;;5036359;28;20045;-70
2022/12/18 10:51:23;;;;;;;24.85;17.73;;;-3.50;99.90;;;;;;5036616;28;20033;-69
2022/12/18 10:53:56;;;;;;;20.60;16.52;;;-3.40;99.90;;;;;;5036191;28;20033;-69
2022/12/18 10:56:24;;;;;;;22.33;17.20;;;-3.40;99.90;;;;;;5036196;28;20038;-69
2022/12/18 10:59:08;;;;;;;21.90;16.77;;;-3.30;99.90;;;;;;5036215;28;20065;-69
2022/12/18 11:01:53;;;;;;;21.83;17.38;;;-3.20;99.90;;;;;;5036105;28;20438;-69
2022/12/18 11:04:29;;;;;;;21.35;16.65;;;-3.20;99.90;;;;;;5036032;28;20091;-69
2022/12/18 11:06:55;;;;;;;18.95;15.38;;;-3.10;99.90;;;;;;5035269;28;20061;-70
2022/12/18 11:09:22;;;;;;;20.33;14.52;;;-3.00;99.90;;;;;;5017708;28;20053;-70
2022/12/18 11:11:52;;;;;;;19.15;15.05;;;-2.90;99.90;;;;;;5018091;28;20099;-69
2022/12/18 11:14:40;;;;;;;17.70;14.73;;;-2.80;99.90;;;;;;5036155;28;20378;-69
2022/12/18 11:17:21;;;;;;;19.55;15.02;;;-2.70;99.90;;;;;;5026272;28;20057;-69
2022/12/18 11:19:54;;;;;;;17.90;13.57;;;-2.70;99.90;;;;;;5036168;28;20137;-70
2022/12/18 11:22:29;;;;;;;20.35;15.20;;;-2.60;99.90;;;;;;5035942;28;20045;-69
2022/12/18 11:24:54;;;;;;;20.33;14.30;;;-2.50;99.90;;;;;;5019071;28;20107;-69
2022/12/18 11:27:20;;;;;;;18.83;13.68;;;-2.40;99.90;;;;;;5035348;28;20061;-69
2022/12/18 11:29:49;;;;;;;18.92;14.63;;;-2.40;99.90;;;;;;5035554;28;20413;-69
2022/12/18 11:32:15;;;;;;;17.05;12.63;;;-2.30;99.90;;;;;;5035709;28;20453;-69
2022/12/18 11:34:46;;;;;;;16.05;12.32;;;-2.30;99.90;;;;;;5036039;28;20077;-69
2022/12/18 11:37:14;;;;;;;17.48;13.63;;;-2.20;99.90;;;;;;5035371;28;20110;-69
2022/12/18 11:39:51;;;;;;;16.90;13.15;;;-2.20;99.90;;;;;;5035892;28;20081;-69
2022/12/18 11:42:35;;;;;;;17.58;13.18;;;-2.10;99.90;;;;;;5018060;28;20115;-69
2022/12/18 11:45:12;;;;;;;15.98;12.88;;;-2.10;99.90;;;;;;5035611;28;20049;-68
2022/12/18 11:47:54;;;;;;;15.73;12.15;;;-2.00;99.90;;;;;;5035588;28;20061;-69
2022/12/18 11:50:24;;;;;;;16.20;11.75;;;-2.00;99.90;;;;;;5035303;28;20045;-69
2022/12/18 11:52:50;;;;;;;16.98;11.98;;;-1.90;99.90;;;;;;5035107;28;20041;-69
2022/12/18 11:55:28;;;;;;;15.82;11.57;;;-1.80;99.90;;;;;;5035292;28;20049;-69
2022/12/18 11:58:06;;;;;;;15.52;11.65;;;-1.80;99.90;;;;;;5034210;28;20089;-68
2022/12/18 12:00:34;;;;;;;15.90;11.43;;;-1.80;99.90;;;;;;5035062;28;20045;-69
2022/12/18 12:03:24;;;;;;;16.23;11.05;;;-1.50;99.90;;;;;;5033989;28;20049;-69
2022/12/18 12:05:59;;;;;;;13.70;11.00;;;-1.70;99.90;;;;;;5035038;28;20045;-68
2022/12/18 12:08:39;;;;;;;14.70;10.60;;;-1.70;99.90;;;;;;5035078;28;20050;-69
2022/12/18 12:11:17;;;;;;;14.10;10.00;;;-1.60;99.90;;;;;;5035019;28;20046;-69
2022/12/18 12:13:55;;;;;;;17.00;10.90;;;-1.60;99.90;;;;;;5035250;28;20041;-69
2022/12/18 12:16:41;;;;;;;15.65;10.23;;;-1.40;99.90;;;;;;5034659;28;20049;-69
2022/12/18 12:19:19;;;;;;;15.32;10.85;;;-1.50;99.90;;;;;;5034858;28;20049;-69
2022/12/18 12:22:02;;;;;;;14.98;10.15;;;-1.50;99.90;;;;;;5034919;28;20050;-68
2022/12/18 12:24:48;;;;;;;13.57;9.82;;;-1.50;99.90;;;;;;5034936;28;20038;-69
2022/12/18 12:27:41;;;;;;;13.88;10.07;;;-1.40;99.90;;;;;;5032061;28;20056;-68
2022/12/18 12:30:07;;;;;;;13.00;9.43;;;-1.40;99.90;;;;;;5034324;28;20419;-68
2022/12/18 12:33:08;;;;;;;14.35;9.90;;;-1.40;99.90;;;;;;5033648;28;20041;-68
2022/12/18 12:35:59;;;;;;;13.02;9.82;;;-1.30;99.90;;;;;;5033718;28;20050;-68
2022/12/18 12:38:27;;;;;;;14.40;9.98;;;-1.30;99.90;;;;;;5006640;28;20378;-68
2022/12/18 12:44:37;;;;;;;12.65;9.45;;;-1.20;99.90;;;;;;4973084;28;20472;-68
2022/12/18 12:47:16;;;;;;;13.18;9.45;;;-1.20;99.90;;;;;;4976173;28;20050;-68